createdAt,value
2018-06-01T00:01:15.708Z,10.13
2018-06-01T00:06:07.346Z,10.70
2018-06-01T00:10:58.985Z,9.80
2018-06-01T00:15:49.888Z,10.10
2018-06-01T00:20:41.520Z,9.67
2018-06-01T00:25:33.158Z,10.10
2018-06-01T00:30:24.859Z,9.90
2018-06-01T00:35:15.766Z,9.83
2018-06-01T00:40:06.663Z,9.43
2018-06-01T00:44:57.629Z,9.43
2018-06-01T00:49:48.537Z,9.60
2018-06-01T00:54:45.567Z,9.00
2018-06-01T00:59:36.476Z,8.80
2018-06-01T01:04:27.438Z,9.17
2018-06-01T01:09:19.815Z,9.70
2018-06-01T01:14:10.703Z,8.97
2018-06-01T01:19:01.626Z,9.40
2018-06-01T01:23:52.538Z,9.20
2018-06-01T01:28:43.447Z,9.70
2018-06-01T01:33:34.339Z,8.70
2018-06-01T01:38:25.238Z,8.63
2018-06-01T01:43:16.938Z,8.40
2018-06-01T01:48:07.845Z,9.10
2018-06-01T01:52:58.779Z,8.40
2018-06-01T01:57:49.779Z,9.27
2018-06-01T02:02:40.729Z,8.80
2018-06-01T02:07:31.615Z,8.97
2018-06-01T02:12:22.525Z,8.70
2018-06-01T02:17:13.415Z,8.80
2018-06-01T02:22:04.317Z,8.03
2018-06-01T02:26:55.966Z,8.80
2018-06-01T02:31:46.858Z,8.17
2018-06-01T02:36:37.867Z,9.13
2018-06-01T02:41:28.882Z,8.03
2018-06-01T02:46:19.900Z,8.03
2018-06-01T02:51:10.791Z,8.07
2018-06-01T02:56:01.702Z,8.07
2018-06-01T03:00:52.625Z,8.40
2018-06-01T03:05:43.554Z,8.43
2018-06-01T03:10:34.454Z,8.07
2018-06-01T03:15:25.358Z,7.40
2018-06-01T03:20:16.337Z,8.27
2018-06-01T03:25:07.227Z,7.70
2018-06-01T03:29:58.134Z,7.53
2018-06-01T03:34:49.046Z,7.50
2018-06-01T03:39:39.947Z,8.23
2018-06-01T03:44:30.930Z,7.80
2018-06-01T03:49:21.823Z,7.10
2018-06-01T03:54:12.735Z,7.47
2018-06-01T03:59:03.646Z,7.47
2018-06-01T04:03:54.568Z,8.50
2018-06-01T04:08:45.482Z,8.23
2018-06-01T04:13:36.396Z,8.70
2018-06-01T04:18:27.303Z,8.03
2018-06-01T04:23:18.195Z,8.90
2018-06-01T04:28:09.120Z,8.77
2018-06-01T04:33:00.765Z,8.33
2018-06-01T04:37:51.735Z,9.10
2018-06-01T04:42:42.631Z,8.73
2018-06-01T04:47:33.536Z,9.87
2018-06-01T04:52:24.423Z,8.70
2018-06-01T04:57:15.319Z,9.30
2018-06-01T05:02:06.215Z,9.27
2018-06-01T05:06:57.114Z,9.97
2018-06-01T05:11:48.023Z,10.50
2018-06-01T05:16:38.935Z,10.03
2018-06-01T05:21:29.841Z,10.60
2018-06-01T05:26:21.492Z,9.70
2018-06-01T05:31:12.388Z,10.50
2018-06-01T05:36:04.082Z,11.00
2018-06-01T05:40:54.970Z,11.10
2018-06-01T05:45:46.966Z,11.40
2018-06-01T05:50:37.886Z,10.57
2018-06-01T05:55:28.776Z,11.27
2018-06-01T06:00:19.694Z,10.83
2018-06-01T06:05:10.595Z,10.73
2018-06-01T06:10:01.497Z,12.00
2018-06-01T06:14:52.466Z,10.83
2018-06-01T06:19:43.490Z,11.40
2018-06-01T06:24:34.391Z,12.00
2018-06-01T06:29:25.312Z,12.10
2018-06-01T06:34:16.274Z,13.20
2018-06-01T06:39:07.205Z,11.87
2018-06-01T06:43:58.168Z,12.17
2018-06-01T06:48:49.063Z,12.30
2018-06-01T06:53:40.026Z,12.50
2018-06-01T06:58:30.938Z,12.80
2018-06-01T07:03:21.849Z,13.00
2018-06-01T07:08:12.734Z,12.40
2018-06-01T07:13:03.619Z,13.10
2018-06-01T07:17:55.270Z,12.10
2018-06-01T07:22:46.989Z,12.63
2018-06-01T07:27:37.939Z,12.67
2018-06-01T07:32:28.791Z,13.17
2018-06-01T07:37:19.743Z,11.87
2018-06-01T07:42:11.395Z,12.40
2018-06-01T07:47:03.030Z,12.40
2018-06-01T07:51:54.677Z,12.13
2018-06-01T07:56:45.649Z,12.00
2018-06-01T08:01:36.557Z,11.07
2018-06-01T08:06:27.477Z,11.10
2018-06-01T08:11:18.371Z,11.27
2018-06-01T08:16:09.251Z,11.50
2018-06-01T08:21:00.954Z,11.77
2018-06-01T08:25:51.867Z,11.93
2018-06-01T08:30:42.776Z,10.90
2018-06-01T08:35:33.752Z,9.47
2018-06-01T08:40:25.398Z,8.50
2018-06-01T08:45:16.302Z,7.47
2018-06-01T08:50:07.955Z,6.73
2018-06-01T08:54:58.861Z,6.33
2018-06-01T08:59:49.787Z,6.20
2018-06-01T09:04:41.254Z,6.20
2018-06-01T09:09:32.147Z,7.07
2018-06-01T09:14:23.049Z,5.90
2018-06-01T09:19:13.939Z,5.93
2018-06-01T09:24:05.582Z,6.60
2018-06-01T09:28:56.498Z,5.97
2018-06-01T09:33:47.406Z,6.10
2018-06-01T09:38:38.320Z,6.60
2018-06-01T09:43:29.350Z,5.00
2018-06-01T09:48:21.727Z,5.50
2018-06-01T09:53:12.654Z,5.07
2018-06-01T09:58:03.557Z,4.97
2018-06-01T10:02:55.186Z,4.57
2018-06-01T10:07:46.891Z,5.00
2018-06-01T10:12:37.787Z,6.07
2018-06-01T10:17:28.698Z,5.50
2018-06-01T10:22:19.593Z,4.70
2018-06-01T10:27:11.235Z,5.00
2018-06-01T10:32:02.126Z,5.43
2018-06-01T10:36:53.034Z,5.20
2018-06-01T10:41:44.011Z,5.40
2018-06-01T10:46:34.911Z,5.10
2018-06-01T10:51:25.826Z,5.37
2018-06-01T10:56:16.742Z,5.20
2018-06-01T11:01:07.653Z,5.10
2018-06-01T11:05:59.298Z,4.50
2018-06-01T11:10:50.191Z,4.47
2018-06-01T11:15:41.109Z,4.83
2018-06-01T11:20:32.807Z,6.60
2018-06-01T11:25:23.698Z,5.73
2018-06-01T11:30:14.603Z,5.80
2018-06-01T11:35:05.531Z,7.00
2018-06-01T11:39:56.490Z,7.13
2018-06-01T11:44:47.383Z,7.17
2018-06-01T11:49:38.301Z,7.70
2018-06-01T11:54:29.246Z,7.27
2018-06-01T11:59:20.155Z,7.40
2018-06-01T12:04:11.047Z,6.60
2018-06-01T12:09:01.962Z,6.87
2018-06-01T12:13:52.881Z,5.97
2018-06-01T12:18:43.772Z,6.10
2018-06-01T12:23:35.406Z,6.10
2018-06-01T12:28:28.899Z,6.23
2018-06-01T12:33:20.738Z,5.70
2018-06-01T12:38:11.759Z,5.73
2018-06-01T12:43:02.674Z,5.60
2018-06-01T12:47:54.392Z,5.70
2018-06-01T12:52:45.302Z,5.50
2018-06-01T12:57:36.952Z,5.90
2018-06-01T13:02:27.842Z,5.43
2018-06-01T13:07:18.765Z,5.50
2018-06-01T13:12:09.796Z,5.43
2018-06-01T13:17:00.686Z,5.07
2018-06-01T13:21:51.582Z,5.20
2018-06-01T13:26:42.490Z,5.53
2018-06-01T13:31:33.391Z,5.80
2018-06-01T13:36:25.038Z,6.17
2018-06-01T13:41:15.955Z,5.70
2018-06-01T13:46:06.861Z,5.17
2018-06-01T13:50:58.491Z,5.07
2018-06-01T13:55:50.142Z,5.07
2018-06-01T14:00:41.098Z,4.50
2018-06-01T14:05:32.046Z,5.37
2018-06-01T14:10:22.946Z,5.70
2018-06-01T14:15:13.853Z,5.30
2018-06-01T14:20:04.825Z,5.23
2018-06-01T14:24:56.478Z,5.77
2018-06-01T14:29:47.371Z,6.13
2018-06-01T14:34:38.282Z,5.80
2018-06-01T14:39:29.274Z,7.00
2018-06-01T14:44:20.171Z,6.03
2018-06-01T14:49:11.063Z,5.97
2018-06-01T14:54:02.732Z,6.60
2018-06-01T14:58:53.649Z,6.60
2018-06-01T15:03:44.555Z,6.50
2018-06-01T15:08:35.501Z,6.70
2018-06-01T15:13:27.090Z,6.80
2018-06-01T15:18:18.004Z,6.97
2018-06-01T15:23:09.638Z,7.63
2018-06-01T15:28:01.334Z,7.77
2018-06-01T15:32:52.223Z,7.40
2018-06-01T15:37:43.130Z,7.67
2018-06-01T15:42:34.038Z,8.00
2018-06-01T15:47:24.935Z,7.90
2018-06-01T15:52:16.593Z,8.57
2018-06-01T15:57:07.514Z,8.00
2018-06-01T16:01:58.407Z,8.90
2018-06-01T16:06:50.062Z,8.70
2018-06-01T16:11:40.957Z,8.43
2018-06-01T16:16:32.587Z,9.10
2018-06-01T16:21:23.487Z,9.10
2018-06-01T16:26:14.371Z,8.53
2018-06-01T16:31:05.298Z,8.40
2018-06-01T16:35:56.246Z,8.17
2018-06-01T16:40:47.139Z,8.50
2018-06-01T16:45:38.058Z,8.10
2018-06-01T16:50:28.958Z,7.63
2018-06-01T16:55:19.906Z,8.73
2018-06-01T17:00:10.865Z,7.40
2018-06-01T17:05:02.496Z,7.50
2018-06-01T17:09:54.150Z,8.10
2018-06-01T17:14:45.070Z,7.17
2018-06-01T17:19:36.047Z,7.43
2018-06-01T17:24:26.958Z,7.70
2018-06-01T17:29:17.851Z,7.93
2018-06-01T17:34:08.747Z,7.70
2018-06-01T17:38:59.631Z,7.00
2018-06-01T17:43:50.546Z,8.03
2018-06-01T17:48:41.464Z,8.00
2018-06-01T17:53:32.360Z,8.37
2018-06-01T17:58:23.265Z,9.40
2018-06-01T18:03:14.178Z,9.90
2018-06-01T18:08:05.082Z,9.30
2018-06-01T18:12:55.990Z,10.10
2018-06-01T18:17:46.879Z,9.77
2018-06-01T18:22:37.995Z,9.33
2018-06-01T18:27:28.782Z,9.90
2018-06-01T18:32:19.663Z,11.23
2018-06-01T18:37:10.562Z,10.67
2018-06-01T18:42:02.270Z,10.10
2018-06-01T18:46:53.225Z,10.10
2018-06-01T18:51:44.914Z,10.40
2018-06-01T18:56:35.830Z,10.60
2018-06-01T19:01:26.769Z,10.93
2018-06-01T19:06:17.699Z,10.00
2018-06-01T19:11:08.706Z,9.97
2018-06-01T19:16:01.052Z,10.60
2018-06-01T19:20:52.006Z,9.83
2018-06-01T19:25:44.078Z,11.20
2018-06-01T19:30:35.055Z,11.27
2018-06-01T19:35:25.950Z,10.43
2018-06-01T19:40:16.867Z,11.30
2018-06-01T19:50:25.596Z,10.48
2018-06-01T19:55:16.555Z,11.30
2018-06-01T20:00:07.447Z,11.97
2018-06-01T20:04:58.387Z,11.17
2018-06-01T20:09:49.275Z,12.63
2018-06-01T20:14:40.174Z,11.50
2018-06-01T20:19:31.806Z,11.70
2018-06-01T20:24:23.439Z,14.07
2018-06-01T20:29:15.132Z,10.67
2018-06-01T20:34:06.020Z,10.77
2018-06-01T20:38:56.989Z,11.00
2018-06-01T20:43:47.875Z,10.50
2018-06-01T20:48:38.799Z,10.23
2018-06-01T20:53:29.731Z,9.17
2018-06-01T20:58:20.743Z,9.90
2018-06-01T21:03:12.500Z,9.57
2018-06-01T21:08:03.434Z,10.10
2018-06-01T21:12:54.343Z,10.50
2018-06-01T21:17:45.235Z,9.73
2018-06-01T21:22:36.201Z,9.93
2018-06-01T21:27:27.909Z,9.63
2018-06-01T21:32:18.806Z,8.93
2018-06-01T21:37:09.766Z,9.23
2018-06-01T21:42:00.674Z,10.37
2018-06-01T21:46:51.693Z,9.40
2018-06-01T21:51:42.710Z,9.77
2018-06-01T21:56:33.660Z,10.40
2018-06-01T22:01:25.416Z,10.60
2018-06-01T22:06:16.483Z,9.90
2018-06-01T22:11:07.398Z,9.63
2018-06-01T22:15:59.039Z,9.57
2018-06-01T22:20:50.763Z,9.57
2018-06-01T22:25:41.709Z,10.40
2018-06-01T22:30:32.711Z,10.13
2018-06-01T22:35:23.595Z,8.80
2018-06-01T22:40:14.510Z,9.37
2018-06-01T22:45:05.422Z,9.57
2018-06-01T22:49:56.393Z,9.07
2018-06-01T22:54:47.413Z,9.70
2018-06-01T22:59:38.303Z,9.07
2018-06-01T23:04:29.201Z,9.10
2018-06-01T23:09:20.166Z,8.53
2018-06-01T23:14:11.206Z,9.80
2018-06-01T23:19:02.192Z,8.70
2018-06-01T23:23:53.093Z,8.90
2018-06-01T23:28:43.983Z,9.33
2018-06-01T23:33:35.626Z,8.03
2018-06-01T23:38:26.542Z,9.23
2018-06-01T23:43:17.515Z,9.13
2018-06-01T23:48:08.438Z,8.60
2018-06-01T23:52:59.331Z,8.23
2018-06-01T23:57:50.274Z,8.93
